Time;durP1;ratioP1;P1;durP2;ratioP2;P2;SDS_P1;SDS_P2;PMS_P1;PMS_P2;Temp;Humidity;BMP_temperature;BMP_pressure;BME280_temperature;BME280_humidity;BME280_pressure;Samples;Min_cycle;Max_cycle;Signal;HPM_P1;HPM_P2
2021/07/14 00:01:20;;;;;;;22.42;10.98;;;;;;;;;;5109910;28;20059;-64
2021/07/14 00:03:46;;;;;;;21.35;10.98;;;;;;;;;;5106658;28;20019;-63
2021/07/14 00:06:12;;;;;;;18.92;9.07;;;;;;;;;;5092554;28;20020;-63
2021/07/14 00:08:39;;;;;;;21.42;9.77;;;;;;;;;;5111074;28;20030;-64
2021/07/14 00:11:05;;;;;;;22.40;11.02;;;;;;;;;;5110027;28;20992;-64
2021/07/14 00:13:34;;;;;;;23.55;11.90;;;;;;;;;;5109070;28;20046;-64
2021/07/14 00:24:15;;;;;;;21.77;10.82;;;;;;;;;;5109664;27;20157;-63
2021/07/14 00:26:41;;;;;;;22.70;10.77;;;;;;;;;;5109598;28;20028;-63
2021/07/14 00:29:11;;;;;;;25.63;10.80;;;;;;;;;;5110346;28;20100;-63
2021/07/14 00:31:38;;;;;;;22.08;11.38;;;;;;;;;;5110322;28;20024;-64
2021/07/14 00:34:04;;;;;;;26.10;10.60;;;;;;;;;;5108711;28;20027;-64
2021/07/14 00:36:30;;;;;;;18.85;9.02;;;;;;;;;;5110661;28;20045;-63
2021/07/14 00:38:56;;;;;;;24.15;11.05;;;;;;;;;;5108941;28;20437;-63
2021/07/14 00:41:22;;;;;;;26.83;10.55;;;;;;;;;;5091033;28;20023;-63
2021/07/14 00:43:48;;;;;;;23.95;10.65;;;;;;;;;;5108886;28;20035;-62
2021/07/14 00:46:22;;;;;;;25.23;11.40;;;;;;;;;;5090981;28;20024;-64
2021/07/14 00:48:49;;;;;;;25.30;11.27;;;;;;;;;;5091774;28;20027;-63
2021/07/14 00:51:16;;;;;;;25.40;10.32;;;;;;;;;;5091110;28;20027;-63
2021/07/14 00:53:42;;;;;;;24.40;11.38;;;;;;;;;;5108185;28;20160;-63
2021/07/14 00:56:08;;;;;;;26.20;10.38;;;;;;;;;;5109093;28;20055;-63
2021/07/14 00:58:34;;;;;;;28.65;11.55;;;;;;;;;;5107947;28;20095;-63
2021/07/14 01:01:03;;;;;;;19.98;11.10;;;;;;;;;;5107647;28;20023;-63
2021/07/14 01:03:31;;;;;;;20.85;9.98;;;;;;;;;;5106556;28;20046;-63
2021/07/14 01:05:59;;;;;;;24.85;10.55;;;;;;;;;;5107717;28;20111;-63
2021/07/14 01:08:28;;;;;;;24.25;10.50;;;;;;;;;;5109667;28;20107;-63
2021/07/14 01:11:15;;;;;;;23.17;9.82;;;;;;;;;;5108884;28;20028;-63
2021/07/14 01:13:45;;;;;;;25.58;10.95;;;;;;;;;;5089864;28;20024;-64
2021/07/14 01:16:15;;;;;;;17.30;10.13;;;;;;;;;;5108185;28;20028;-64
2021/07/14 01:18:53;;;;;;;22.05;10.23;;;;;;;;;;5110054;28;20019;-63
2021/07/14 01:21:24;;;;;;;29.25;10.35;;;;;;;;;;5088000;28;20441;-64
2021/07/14 01:24:08;;;;;;;21.67;10.43;;;;;;;;;;5089309;28;20061;-64
2021/07/14 01:26:38;;;;;;;24.88;10.55;;;;;;;;;;5107828;28;20019;-64
2021/07/14 01:29:06;;;;;;;22.33;10.82;;;;;;;;;;5090361;28;20031;-63
2021/07/14 01:31:33;;;;;;;27.35;10.95;;;;;;;;;;5109711;28;20028;-66
2021/07/14 01:34:01;;;;;;;24.13;10.43;;;;;;;;;;5088607;28;20031;-64
2021/07/14 01:36:28;;;;;;;28.27;11.30;;;;;;;;;;5089191;28;20026;-64
2021/07/14 01:38:54;;;;;;;22.73;9.88;;;;;;;;;;5090817;28;20024;-64
2021/07/14 01:41:22;;;;;;;18.35;9.25;;;;;;;;;;5109597;28;20556;-64
2021/07/14 01:43:51;;;;;;;20.77;10.25;;;;;;;;;;5108555;28;20384;-64
2021/07/14 01:46:17;;;;;;;21.33;9.68;;;;;;;;;;5108715;28;20410;-65
2021/07/14 01:48:44;;;;;;;23.00;10.45;;;;;;;;;;5109722;28;20479;-64
2021/07/14 01:51:11;;;;;;;25.08;9.90;;;;;;;;;;5087937;28;20023;-64
2021/07/14 01:53:38;;;;;;;23.55;10.52;;;;;;;;;;5088890;28;20120;-63
2021/07/14 01:56:05;;;;;;;24.90;11.30;;;;;;;;;;5109255;28;20030;-64
2021/07/14 01:58:32;;;;;;;21.00;10.50;;;;;;;;;;5109659;28;20034;-63
2021/07/14 02:00:59;;;;;;;19.60;10.60;;;;;;;;;;5108582;28;20224;-64
2021/07/14 02:05:55;;;;;;;21.98;9.95;;;;;;;;;;5110560;28;20186;-64
2021/07/14 02:08:21;;;;;;;22.27;11.10;;;;;;;;;;5113174;28;20028;-64
2021/07/14 02:10:48;;;;;;;21.25;9.70;;;;;;;;;;5113992;28;20028;-64
2021/07/14 02:13:14;;;;;;;24.35;10.27;;;;;;;;;;5093421;28;20493;-63
2021/07/14 02:15:41;;;;;;;25.90;10.30;;;;;;;;;;5112913;28;20020;-63
2021/07/14 02:18:10;;;;;;;19.33;9.50;;;;;;;;;;5094136;28;20034;-65
2021/07/14 02:20:36;;;;;;;24.85;8.13;;;;;;;;;;5112724;28;20081;-63
2021/07/14 02:23:06;;;;;;;25.30;9.82;;;;;;;;;;5112143;27;20031;-64
2021/07/14 02:25:32;;;;;;;23.08;8.73;;;;;;;;;;5113235;27;20019;-63
2021/07/14 02:27:59;;;;;;;27.05;11.15;;;;;;;;;;5112907;28;20024;-65
2021/07/14 02:30:25;;;;;;;23.90;9.82;;;;;;;;;;5112328;28;20036;-64
2021/07/14 02:32:57;;;;;;;22.77;9.90;;;;;;;;;;5111617;28;20019;-64
2021/07/14 02:35:23;;;;;;;23.83;9.57;;;;;;;;;;5090876;28;20031;-63
2021/07/14 02:37:51;;;;;;;20.38;9.45;;;;;;;;;;5112761;28;20027;-63
2021/07/14 02:40:33;;;;;;;23.67;9.70;;;;;;;;;;5112528;27;20030;-63
2021/07/14 02:43:02;;;;;;;22.15;9.50;;;;;;;;;;5089383;28;20074;-64
2021/07/14 02:45:29;;;;;;;20.42;9.98;;;;;;;;;;5112172;28;20031;-63
2021/07/14 02:47:56;;;;;;;16.02;8.50;;;;;;;;;;5113239;28;20024;-65
2021/07/14 02:50:24;;;;;;;21.58;9.93;;;;;;;;;;5112816;28;20062;-65
2021/07/14 02:52:53;;;;;;;24.05;10.13;;;;;;;;;;5110086;28;20040;-64
2021/07/14 02:55:21;;;;;;;25.08;10.82;;;;;;;;;;5110394;28;20546;-63
2021/07/14 02:57:49;;;;;;;22.73;10.10;;;;;;;;;;5093719;28;20399;-64
2021/07/14 03:00:15;;;;;;;20.17;9.40;;;;;;;;;;5112629;28;20020;-65
2021/07/14 03:02:41;;;;;;;19.52;9.15;;;;;;;;;;5110784;28;20031;-65
2021/07/14 03:05:08;;;;;;;18.77;8.27;;;;;;;;;;5112196;28;20073;-64
2021/07/14 03:07:35;;;;;;;18.67;8.60;;;;;;;;;;5112855;28;20016;-65
2021/07/14 03:10:02;;;;;;;22.00;9.27;;;;;;;;;;5112475;28;20031;-64
2021/07/14 03:12:28;;;;;;;30.25;9.60;;;;;;;;;;5109380;28;20019;-64
2021/07/14 03:14:56;;;;;;;25.85;10.02;;;;;;;;;;5092484;28;20131;-64
2021/07/14 03:17:23;;;;;;;18.80;9.90;;;;;;;;;;5112203;28;20015;-64
2021/07/14 03:19:50;;;;;;;20.92;9.65;;;;;;;;;;5092867;28;20028;-64
2021/07/14 03:22:18;;;;;;;17.90;9.85;;;;;;;;;;5111284;27;20055;-64
2021/07/14 03:24:45;;;;;;;21.17;9.00;;;;;;;;;;5111147;27;20050;-63
2021/07/14 03:27:11;;;;;;;21.63;8.85;;;;;;;;;;5111117;28;20077;-64
2021/07/14 03:29:38;;;;;;;19.33;8.57;;;;;;;;;;5111020;28;20517;-64
2021/07/14 03:32:04;;;;;;;13.93;8.60;;;;;;;;;;5111657;28;20047;-65
2021/07/14 03:34:31;;;;;;;28.15;10.48;;;;;;;;;;5110235;28;20020;-65
2021/07/14 03:36:57;;;;;;;22.45;10.25;;;;;;;;;;5111982;27;20103;-65
2021/07/14 03:39:24;;;;;;;16.33;9.13;;;;;;;;;;5092646;28;20031;-64
2021/07/14 03:41:51;;;;;;;26.65;9.43;;;;;;;;;;5111466;28;20051;-65
2021/07/14 03:44:18;;;;;;;19.20;9.80;;;;;;;;;;5108499;28;20028;-65
2021/07/14 03:46:45;;;;;;;18.77;9.18;;;;;;;;;;5108985;28;20028;-64
2021/07/14 03:49:14;;;;;;;20.42;9.48;;;;;;;;;;5111166;28;20024;-65
2021/07/14 03:51:44;;;;;;;18.63;8.88;;;;;;;;;;5092112;28;20514;-65
2021/07/14 03:54:14;;;;;;;14.52;8.48;;;;;;;;;;5110491;28;20089;-65
2021/07/14 03:56:40;;;;;;;22.15;9.10;;;;;;;;;;5111189;28;20134;-64
2021/07/14 03:59:06;;;;;;;21.73;9.60;;;;;;;;;;5111837;28;20019;-64
2021/07/14 04:01:33;;;;;;;24.42;10.73;;;;;;;;;;5111031;28;20019;-65
2021/07/14 04:03:59;;;;;;;22.10;10.25;;;;;;;;;;5108052;28;20032;-64
2021/07/14 04:06:27;;;;;;;24.45;9.65;;;;;;;;;;5110086;28;20055;-65
2021/07/14 04:09:13;;;;;;;18.70;8.80;;;;;;;;;;5110808;28;20032;-65
2021/07/14 04:11:39;;;;;;;25.42;9.43;;;;;;;;;;5091456;28;20169;-64
2021/07/14 04:14:05;;;;;;;20.27;11.07;;;;;;;;;;5109091;28;20486;-63
2021/07/14 04:16:31;;;;;;;23.88;10.73;;;;;;;;;;5110678;28;20035;-64
2021/07/14 04:18:57;;;;;;;27.17;11.32;;;;;;;;;;5110951;28;20077;-64
2021/07/14 04:21:23;;;;;;;23.58;10.15;;;;;;;;;;5110426;28;20035;-64
2021/07/14 04:23:49;;;;;;;28.48;12.55;;;;;;;;;;5111679;27;20023;-64
2021/07/14 04:26:16;;;;;;;27.25;12.45;;;;;;;;;;5110106;28;20015;-64
2021/07/14 04:28:42;;;;;;;21.98;12.05;;;;;;;;;;5091353;28;20036;-64
2021/07/14 04:31:08;;;;;;;25.13;13.52;;;;;;;;;;5109962;28;20110;-63
2021/07/14 04:33:35;;;;;;;28.75;13.35;;;;;;;;;;5108535;28;20023;-63
2021/07/14 04:36:01;;;;;;;27.30;14.48;;;;;;;;;;5110199;28;20092;-64
2021/07/14 04:38:27;;;;;;;36.15;15.77;;;;;;;;;;5108488;28;20530;-63
2021/07/14 04:40:53;;;;;;;22.88;13.63;;;;;;;;;;5110905;28;20077;-63
2021/07/14 04:43:19;;;;;;;24.65;15.02;;;;;;;;;;5109466;28;20039;-63
2021/07/14 04:45:45;;;;;;;22.13;14.55;;;;;;;;;;5110196;28;20102;-63
2021/07/14 04:48:11;;;;;;;33.10;15.98;;;;;;;;;;5109615;28;20146;-64
2021/07/14 04:50:37;;;;;;;32.45;16.13;;;;;;;;;;5110123;28;21604;-63
2021/07/14 04:53:03;;;;;;;27.20;14.77;;;;;;;;;;5108451;28;20112;-64
2021/07/14 04:55:29;;;;;;;29.92;15.93;;;;;;;;;;5092352;28;20030;-64
2021/07/14 04:57:55;;;;;;;25.20;13.93;;;;;;;;;;5109362;28;20031;-63
2021/07/14 05:00:21;;;;;;;31.00;17.05;;;;;;;;;;5094115;28;20402;-63
2021/07/14 05:02:47;;;;;;;30.08;17.08;;;;;;;;;;5085810;28;20019;-64
2021/07/14 05:05:14;;;;;;;28.52;15.90;;;;;;;;;;5109906;28;20058;-64
2021/07/14 05:07:40;;;;;;;31.63;15.55;;;;;;;;;;5107701;28;20027;-64
2021/07/14 05:10:06;;;;;;;31.60;15.68;;;;;;;;;;5107282;28;20050;-63
2021/07/14 05:12:32;;;;;;;32.00;16.35;;;;;;;;;;5109178;28;20034;-64
2021/07/14 05:14:58;;;;;;;32.03;15.27;;;;;;;;;;5109131;28;20507;-64
2021/07/14 05:17:24;;;;;;;28.42;16.40;;;;;;;;;;5110151;28;20027;-63
2021/07/14 05:19:53;;;;;;;29.05;17.77;;;;;;;;;;5091436;28;20098;-64
2021/07/14 05:22:19;;;;;;;30.02;16.63;;;;;;;;;;5110292;27;20487;-63
2021/07/14 05:24:45;;;;;;;25.27;15.82;;;;;;;;;;5108460;28;20027;-63
2021/07/14 05:27:11;;;;;;;27.95;14.68;;;;;;;;;;5109834;28;20063;-62
2021/07/14 05:29:38;;;;;;;24.83;14.95;;;;;;;;;;5109463;28;20023;-64
2021/07/14 05:32:04;;;;;;;27.83;15.60;;;;;;;;;;5109036;28;20042;-64
2021/07/14 05:34:30;;;;;;;24.05;14.68;;;;;;;;;;5108874;28;20054;-64
2021/07/14 05:36:57;;;;;;;34.40;16.77;;;;;;;;;;5089917;28;20114;-64
2021/07/14 05:39:23;;;;;;;25.85;16.50;;;;;;;;;;5102922;28;20115;-64
2021/07/14 05:41:49;;;;;;;28.35;14.60;;;;;;;;;;5105931;28;20796;-64
2021/07/14 05:44:16;;;;;;;25.88;15.68;;;;;;;;;;5108355;28;20063;-64
2021/07/14 05:46:42;;;;;;;26.77;14.77;;;;;;;;;;5106623;28;20398;-63
2021/07/14 05:49:08;;;;;;;25.77;14.00;;;;;;;;;;5086030;28;20032;-63
2021/07/14 05:51:34;;;;;;;23.73;12.23;;;;;;;;;;5105160;28;20035;-64
2021/07/14 05:54:00;;;;;;;26.45;11.38;;;;;;;;;;5107243;28;20042;-64
2021/07/14 05:56:26;;;;;;;24.48;11.43;;;;;;;;;;5109411;28;20019;-64
2021/07/14 05:58:53;;;;;;;23.38;11.73;;;;;;;;;;5091950;28;20106;-62
2021/07/14 06:01:19;;;;;;;26.40;13.55;;;;;;;;;;5109348;28;20106;-64
2021/07/14 06:03:47;;;;;;;29.25;13.45;;;;;;;;;;5107620;28;20027;-63
2021/07/14 06:06:14;;;;;;;28.33;12.75;;;;;;;;;;5108886;28;20114;-64
2021/07/14 06:08:40;;;;;;;26.13;12.25;;;;;;;;;;5109329;28;20046;-63
2021/07/14 06:11:06;;;;;;;21.30;11.23;;;;;;;;;;5106784;28;20035;-63
2021/07/14 06:13:33;;;;;;;19.67;11.38;;;;;;;;;;5110649;27;20019;-63
2021/07/14 06:15:59;;;;;;;21.67;13.98;;;;;;;;;;5108247;28;20487;-63
2021/07/14 06:18:25;;;;;;;29.00;13.73;;;;;;;;;;5088913;28;21709;-64
2021/07/14 06:20:51;;;;;;;24.40;12.57;;;;;;;;;;5108552;28;20437;-64
2021/07/14 06:23:17;;;;;;;25.88;12.98;;;;;;;;;;5108988;28;20024;-63
2021/07/14 06:25:44;;;;;;;25.15;13.13;;;;;;;;;;5108223;28;20104;-63
2021/07/14 06:28:13;;;;;;;23.90;12.98;;;;;;;;;;5106855;28;20043;-64
2021/07/14 06:30:42;;;;;;;27.35;11.90;;;;;;;;;;5109354;28;20019;-64
2021/07/14 06:33:09;;;;;;;22.13;12.68;;;;;;;;;;5087518;28;20571;-64
2021/07/14 06:35:35;;;;;;;19.23;9.80;;;;;;;;;;5107500;28;20308;-63
2021/07/14 06:38:02;;;;;;;17.40;9.77;;;;;;;;;;5108253;28;20494;-63
2021/07/14 06:40:28;;;;;;;16.75;9.75;;;;;;;;;;5107954;28;20035;-65
2021/07/14 06:42:54;;;;;;;17.52;10.35;;;;;;;;;;5084621;28;20088;-64
2021/07/14 06:45:23;;;;;;;23.67;11.27;;;;;;;;;;5108160;28;20031;-64
2021/07/14 06:47:50;;;;;;;20.83;10.27;;;;;;;;;;5090660;28;20027;-64
2021/07/14 06:50:16;;;;;;;20.48;9.93;;;;;;;;;;5111122;27;20127;-64
2021/07/14 06:52:42;;;;;;;15.07;9.13;;;;;;;;;;5110779;28;21457;-63
2021/07/14 06:55:09;;;;;;;22.20;9.85;;;;;;;;;;5112890;28;20054;-63
2021/07/14 06:57:36;;;;;;;19.73;9.43;;;;;;;;;;5095179;28;20044;-64
2021/07/14 07:00:02;;;;;;;16.75;8.73;;;;;;;;;;5109437;28;20567;-64
2021/07/14 07:02:28;;;;;;;13.23;7.22;;;;;;;;;;5110186;27;20111;-64
2021/07/14 07:04:54;;;;;;;18.00;8.63;;;;;;;;;;5110203;28;20024;-64
2021/07/14 07:07:20;;;;;;;16.65;9.23;;;;;;;;;;5110431;28;20525;-63
2021/07/14 07:09:46;;;;;;;18.88;10.13;;;;;;;;;;5112255;28;20051;-64
2021/07/14 07:12:12;;;;;;;17.48;10.00;;;;;;;;;;5109153;28;20407;-64
2021/07/14 07:14:40;;;;;;;18.20;10.00;;;;;;;;;;5110849;28;20032;-65
2021/07/14 07:17:06;;;;;;;17.92;10.70;;;;;;;;;;5111598;28;20011;-64
2021/07/14 07:19:32;;;;;;;17.88;9.80;;;;;;;;;;5115209;27;20486;-65
2021/07/14 07:21:58;;;;;;;19.17;10.57;;;;;;;;;;5099574;28;20314;-65
2021/07/14 07:24:25;;;;;;;20.75;9.70;;;;;;;;;;5108974;27;20020;-63
2021/07/14 07:26:51;;;;;;;17.80;9.85;;;;;;;;;;5111529;28;20509;-64
2021/07/14 07:29:17;;;;;;;20.55;10.52;;;;;;;;;;5097864;28;20043;-64
2021/07/14 07:31:44;;;;;;;26.27;12.50;;;;;;;;;;5111142;28;20057;-64
2021/07/14 07:34:10;;;;;;;24.27;10.57;;;;;;;;;;5099696;28;20050;-64
2021/07/14 07:36:36;;;;;;;20.52;11.23;;;;;;;;;;5112159;27;20034;-65
2021/07/14 07:39:03;;;;;;;22.77;11.57;;;;;;;;;;5109911;28;20552;-64
2021/07/14 07:41:29;;;;;;;22.20;11.60;;;;;;;;;;5110345;28;20076;-64
2021/07/14 07:43:56;;;;;;;25.90;11.60;;;;;;;;;;5109758;28;20019;-65
2021/07/14 07:46:22;;;;;;;21.63;9.88;;;;;;;;;;5108685;28;20490;-66
2021/07/14 07:48:48;;;;;;;24.77;12.13;;;;;;;;;;5110349;28;20042;-64
2021/07/14 07:51:14;;;;;;;18.65;10.60;;;;;;;;;;5110886;28;20032;-66
2021/07/14 07:53:42;;;;;;;21.08;9.98;;;;;;;;;;5110576;27;20095;-65
2021/07/14 07:56:08;;;;;;;18.13;9.60;;;;;;;;;;5098652;28;20032;-65
2021/07/14 07:58:34;;;;;;;14.25;7.90;;;;;;;;;;5110066;28;20108;-65
2021/07/14 08:01:01;;;;;;;17.60;7.93;;;;;;;;;;5107783;28;20019;-66
2021/07/14 08:03:27;;;;;;;18.00;8.95;;;;;;;;;;5106886;28;20035;-65
2021/07/14 08:05:53;;;;;;;19.15;10.40;;;;;;;;;;5111255;28;20016;-65
2021/07/14 08:08:20;;;;;;;19.02;10.43;;;;;;;;;;5108658;28;20032;-65
2021/07/14 08:10:46;;;;;;;18.10;8.90;;;;;;;;;;5102351;28;20024;-64
2021/07/14 08:13:12;;;;;;;16.20;9.35;;;;;;;;;;5105149;28;20556;-65
2021/07/14 08:15:39;;;;;;;18.80;9.25;;;;;;;;;;5104779;28;20479;-65
2021/07/14 08:18:05;;;;;;;20.77;9.77;;;;;;;;;;5110211;28;20575;-63
2021/07/14 08:20:32;;;;;;;17.38;9.63;;;;;;;;;;5110329;28;21747;-65
2021/07/14 08:22:58;;;;;;;17.98;9.82;;;;;;;;;;5108616;27;20049;-65
2021/07/14 08:25:24;;;;;;;18.33;9.60;;;;;;;;;;5109908;28;20059;-64
2021/07/14 08:27:50;;;;;;;20.23;9.90;;;;;;;;;;5112201;27;20054;-66
2021/07/14 08:30:17;;;;;;;22.45;9.85;;;;;;;;;;5110897;28;20028;-66
2021/07/14 08:32:43;;;;;;;20.27;9.75;;;;;;;;;;5110131;28;20020;-66
2021/07/14 08:35:10;;;;;;;16.63;8.65;;;;;;;;;;5109161;28;20419;-64
2021/07/14 08:37:37;;;;;;;16.33;8.68;;;;;;;;;;5107589;28;20047;-65
2021/07/14 08:40:04;;;;;;;17.10;9.23;;;;;;;;;;5110811;27;20035;-65
2021/07/14 08:42:30;;;;;;;15.57;8.07;;;;;;;;;;5109594;28;20023;-65
2021/07/14 08:44:56;;;;;;;22.20;9.50;;;;;;;;;;5101542;28;20367;-66
2021/07/14 08:47:22;;;;;;;17.75;8.45;;;;;;;;;;5110004;28;20019;-65
2021/07/14 08:49:50;;;;;;;16.27;9.02;;;;;;;;;;5116116;27;20026;-64
2021/07/14 08:52:17;;;;;;;18.38;8.95;;;;;;;;;;5122301;27;20122;-66
2021/07/14 08:54:44;;;;;;;16.38;8.23;;;;;;;;;;5106474;27;20794;-66
2021/07/14 08:57:11;;;;;;;20.92;9.18;;;;;;;;;;5104332;28;20035;-65
2021/07/14 08:59:37;;;;;;;14.98;7.35;;;;;;;;;;5111707;28;20111;-66
2021/07/14 09:02:04;;;;;;;16.17;8.15;;;;;;;;;;5117855;27;20053;-65
2021/07/14 09:04:30;;;;;;;17.10;7.78;;;;;;;;;;5104757;28;20034;-65
2021/07/14 09:06:56;;;;;;;16.17;8.02;;;;;;;;;;5108111;28;20026;-63
2021/07/14 09:09:22;;;;;;;15.32;7.45;;;;;;;;;;5106220;27;20016;-66
2021/07/14 09:11:58;;;;;;;15.38;8.50;;;;;;;;;;5109079;28;20039;-66
2021/07/14 09:14:27;;;;;;;18.50;8.98;;;;;;;;;;5116120;27;20061;-65
2021/07/14 09:16:53;;;;;;;16.13;8.57;;;;;;;;;;5116584;27;20015;-64
2021/07/14 09:19:22;;;;;;;17.60;8.52;;;;;;;;;;5097948;28;20055;-65
2021/07/14 09:21:48;;;;;;;14.23;7.75;;;;;;;;;;5104247;28;20046;-65
2021/07/14 09:24:21;;;;;;;19.20;8.30;;;;;;;;;;5084847;28;20019;-64
2021/07/14 09:26:47;;;;;;;16.35;7.75;;;;;;;;;;5109988;28;20059;-64
2021/07/14 09:29:14;;;;;;;14.00;7.40;;;;;;;;;;5105152;28;20032;-65
2021/07/14 09:31:44;;;;;;;18.60;8.02;;;;;;;;;;5104710;28;20057;-66
2021/07/14 09:34:25;;;;;;;24.02;8.40;;;;;;;;;;5106741;28;20114;-65
2021/07/14 09:36:55;;;;;;;17.60;7.40;;;;;;;;;;5107190;28;20020;-65
2021/07/14 09:39:37;;;;;;;17.13;8.50;;;;;;;;;;5107010;27;20027;-64
2021/07/14 09:42:08;;;;;;;14.95;7.90;;;;;;;;;;5106655;28;20057;-65
2021/07/14 09:44:34;;;;;;;17.73;7.57;;;;;;;;;;5103130;28;20027;-66
2021/07/14 09:47:14;;;;;;;19.67;8.05;;;;;;;;;;5109888;28;20517;-65
2021/07/14 09:49:40;;;;;;;17.85;7.25;;;;;;;;;;5090052;28;20043;-67
2021/07/14 09:52:10;;;;;;;19.63;7.70;;;;;;;;;;5108588;28;20035;-65
2021/07/14 09:54:36;;;;;;;16.17;7.00;;;;;;;;;;5107405;28;20043;-64
2021/07/14 09:57:10;;;;;;;18.52;7.82;;;;;;;;;;5110074;28;20066;-65
2021/07/14 09:59:36;;;;;;;18.63;6.50;;;;;;;;;;5110367;28;20023;-65
2021/07/14 10:02:02;;;;;;;16.55;6.82;;;;;;;;;;5092519;28;20028;-65
2021/07/14 10:04:33;;;;;;;18.02;6.95;;;;;;;;;;5107833;28;20035;-64
2021/07/14 10:07:11;;;;;;;18.05;6.97;;;;;;;;;;5110018;28;20035;-65
2021/07/14 10:09:38;;;;;;;16.52;6.93;;;;;;;;;;5114315;27;20376;-65
2021/07/14 10:12:23;;;;;;;17.95;7.00;;;;;;;;;;5091354;28;20036;-65
2021/07/14 10:14:49;;;;;;;18.50;6.90;;;;;;;;;;5094770;28;20515;-66
2021/07/14 10:17:34;;;;;;;20.25;7.63;;;;;;;;;;5107932;28;20102;-66
2021/07/14 10:20:00;;;;;;;22.92;8.13;;;;;;;;;;5091969;28;20063;-65
2021/07/14 10:22:27;;;;;;;21.98;10.68;;;;;;;;;;5091388;28;20031;-64
2021/07/14 10:24:53;;;;;;;18.58;8.02;;;;;;;;;;5127370;27;20510;-65
2021/07/14 10:27:19;;;;;;;21.30;9.18;;;;;;;;;;5112425;27;20054;-65
2021/07/14 10:29:45;;;;;;;17.17;8.57;;;;;;;;;;5113172;28;20108;-65
2021/07/14 10:32:11;;;;;;;17.48;9.40;;;;;;;;;;5111622;28;20046;-66
2021/07/14 10:34:37;;;;;;;26.55;9.38;;;;;;;;;;5106759;28;20034;-66
2021/07/14 10:37:05;;;;;;;22.42;9.30;;;;;;;;;;5111719;28;20036;-66
2021/07/14 10:39:31;;;;;;;18.35;10.20;;;;;;;;;;5112128;27;20027;-67
2021/07/14 10:41:58;;;;;;;20.90;10.50;;;;;;;;;;5095732;28;20016;-66
2021/07/14 10:44:24;;;;;;;22.05;11.07;;;;;;;;;;5115521;27;20038;-65
2021/07/14 10:46:51;;;;;;;19.15;9.65;;;;;;;;;;5112488;28;20028;-66
2021/07/14 10:49:17;;;;;;;20.55;9.98;;;;;;;;;;5108308;28;20089;-66
2021/07/14 10:51:43;;;;;;;18.13;9.60;;;;;;;;;;5112873;28;20473;-65
2021/07/14 10:54:10;;;;;;;28.13;12.52;;;;;;;;;;5110262;28;20040;-64
2021/07/14 10:56:41;;;;;;;18.30;11.48;;;;;;;;;;5113337;28;20024;-64
2021/07/14 10:59:07;;;;;;;23.70;10.75;;;;;;;;;;5112376;28;20054;-63
2021/07/14 11:01:40;;;;;;;24.77;11.40;;;;;;;;;;5114238;27;20069;-65
2021/07/14 11:04:11;;;;;;;17.50;10.57;;;;;;;;;;5109143;28;20024;-66
2021/07/14 11:06:53;;;;;;;22.77;12.55;;;;;;;;;;5094591;28;20031;-65
2021/07/14 11:09:18;;;;;;;;;;;;;;;;;;5110559;28;20027;-65
2021/07/14 11:11:56;;;;;;;30.48;12.32;;;;;;;;;;5112675;28;19954;-65
2021/07/14 11:14:33;;;;;;;24.42;10.50;;;;;;;;;;5108712;28;20137;-65
2021/07/14 11:16:59;;;;;;;20.67;10.57;;;;;;;;;;5111564;28;20069;-65
2021/07/14 11:19:42;;;;;;;21.02;10.55;;;;;;;;;;5117310;27;20043;-65
2021/07/14 11:22:08;;;;;;;23.73;9.52;;;;;;;;;;5105999;28;20027;-64
2021/07/14 11:24:45;;;;;;;19.75;10.52;;;;;;;;;;5113833;27;20023;-65
2021/07/14 11:27:23;;;;;;;18.55;10.38;;;;;;;;;;5109703;28;20023;-65
2021/07/14 11:29:50;;;;;;;16.92;9.35;;;;;;;;;;5101283;28;20073;-65
2021/07/14 11:32:35;;;;;;;16.92;9.27;;;;;;;;;;5105198;28;20441;-65
2021/07/14 11:35:07;;;;;;;25.42;10.70;;;;;;;;;;5104934;27;20032;-63
2021/07/14 11:37:34;;;;;;;24.10;9.45;;;;;;;;;;5098203;28;20038;-65
2021/07/14 11:40:19;;;;;;;22.83;9.00;;;;;;;;;;5106229;27;20024;-63
2021/07/14 11:42:52;;;;;;;23.30;10.35;;;;;;;;;;5101956;28;20023;-65
2021/07/14 11:45:18;;;;;;;19.33;8.57;;;;;;;;;;5109446;28;20028;-65
2021/07/14 11:47:45;;;;;;;18.52;8.57;;;;;;;;;;5105985;28;20031;-65
2021/07/14 11:50:11;;;;;;;25.58;11.18;;;;;;;;;;5110567;28;20705;-63
2021/07/14 11:52:44;;;;;;;26.30;12.57;;;;;;;;;;5109915;27;20035;-64
2021/07/14 11:55:22;;;;;;;20.17;11.48;;;;;;;;;;5110974;28;20031;-65
2021/07/14 11:57:49;;;;;;;24.17;11.98;;;;;;;;;;5111574;28;20028;-64
2021/07/14 12:00:15;;;;;;;23.10;10.65;;;;;;;;;;5110773;28;20064;-65
2021/07/14 12:02:57;;;;;;;23.67;12.15;;;;;;;;;;5105984;28;20050;-65
2021/07/14 12:05:23;;;;;;;;;;;;;;;;;;5110676;28;20126;-64
2021/07/14 12:07:51;;;;;;;28.77;13.85;;;;;;;;;;5093241;28;19943;-63
2021/07/14 12:10:18;;;;;;;35.65;16.52;;;;;;;;;;5115178;27;20506;-64
2021/07/14 12:12:48;;;;;;;31.33;15.90;;;;;;;;;;5091202;28;20563;-63
2021/07/14 12:15:14;;;;;;;36.22;16.52;;;;;;;;;;5108551;28;20024;-64
2021/07/14 12:17:40;;;;;;;41.17;17.63;;;;;;;;;;5093286;28;20494;-64
2021/07/14 12:20:07;;;;;;;38.75;16.20;;;;;;;;;;5111897;28;20023;-63
2021/07/14 12:22:34;;;;;;;35.22;15.38;;;;;;;;;;5109324;28;20031;-63
2021/07/14 12:25:03;;;;;;;37.70;17.38;;;;;;;;;;5111965;28;20058;-64
2021/07/14 12:27:30;;;;;;;34.20;16.73;;;;;;;;;;5109106;27;20092;-64
2021/07/14 12:29:58;;;;;;;37.38;16.50;;;;;;;;;;5111753;28;20028;-64
2021/07/14 12:32:43;;;;;;;37.33;16.77;;;;;;;;;;5104581;28;20085;-64
2021/07/14 12:35:23;;;;;;;31.80;15.85;;;;;;;;;;5103674;28;20059;-65
2021/07/14 12:37:51;;;;;;;37.00;17.08;;;;;;;;;;5108971;28;20028;-64
2021/07/14 12:40:25;;;;;;;33.53;14.57;;;;;;;;;;5108485;28;20457;-64
2021/07/14 12:42:51;;;;;;;34.72;15.63;;;;;;;;;;5108536;27;20289;-64
2021/07/14 12:45:22;;;;;;;33.70;15.05;;;;;;;;;;5110904;28;20038;-64
2021/07/14 12:47:48;;;;;;;32.42;16.85;;;;;;;;;;5109928;28;20426;-64
2021/07/14 12:50:19;;;;;;;36.88;16.60;;;;;;;;;;5111156;28;20027;-64
2021/07/14 12:52:55;;;;;;;42.90;15.73;;;;;;;;;;5108668;28;20130;-63
2021/07/14 12:55:22;;;;;;;36.65;14.93;;;;;;;;;;5111379;28;20055;-63
2021/07/14 12:57:48;;;;;;;39.45;14.35;;;;;;;;;;5110918;28;20024;-64
2021/07/14 13:00:16;;;;;;;44.97;16.83;;;;;;;;;;5120081;27;20095;-64
2021/07/14 13:02:47;;;;;;;37.05;15.77;;;;;;;;;;5108246;27;20220;-64
2021/07/14 13:05:21;;;;;;;28.95;16.58;;;;;;;;;;5111068;28;20046;-64
2021/07/14 13:07:49;;;;;;;32.83;15.98;;;;;;;;;;5089357;28;20031;-64
2021/07/14 13:10:15;;;;;;;32.28;16.58;;;;;;;;;;5092304;28;20551;-64
2021/07/14 13:12:42;;;;;;;47.97;19.35;;;;;;;;;;5105073;28;20020;-65
2021/07/14 13:15:09;;;;;;;44.55;17.65;;;;;;;;;;5097708;28;20529;-64
2021/07/14 13:17:37;;;;;;;37.55;17.25;;;;;;;;;;5109968;27;20040;-63
2021/07/14 13:20:11;;;;;;;38.33;15.90;;;;;;;;;;5086656;28;20503;-64
2021/07/14 13:22:37;;;;;;;38.63;16.42;;;;;;;;;;5102963;28;20540;-64
2021/07/14 13:25:03;;;;;;;32.47;15.18;;;;;;;;;;5098007;28;20024;-64
2021/07/14 13:27:36;;;;;;;36.92;16.40;;;;;;;;;;5090610;28;20027;-63
2021/07/14 13:30:21;;;;;;;37.28;16.40;;;;;;;;;;5087026;28;20082;-64
2021/07/14 13:32:54;;;;;;;40.92;17.50;;;;;;;;;;5094201;28;20023;-63
2021/07/14 13:35:20;;;;;;;40.95;16.60;;;;;;;;;;5107600;27;20388;-64
2021/07/14 13:37:46;;;;;;;37.95;16.23;;;;;;;;;;5103387;28;20054;-64
2021/07/14 13:40:26;;;;;;;39.67;17.27;;;;;;;;;;5101950;28;20035;-64
2021/07/14 13:42:53;;;;;;;41.50;18.45;;;;;;;;;;5106940;28;20083;-64
2021/07/14 13:45:29;;;;;;;35.05;18.08;;;;;;;;;;5103649;28;20574;-65
2021/07/14 13:47:59;;;;;;;41.17;18.33;;;;;;;;;;5087953;28;20012;-63
2021/07/14 13:50:25;;;;;;;39.80;17.80;;;;;;;;;;5107646;28;20050;-64
2021/07/14 13:52:58;;;;;;;36.30;18.85;;;;;;;;;;5104986;28;20051;-64
2021/07/14 13:55:24;;;;;;;41.33;18.42;;;;;;;;;;5105286;28;20032;-65
2021/07/14 13:57:50;;;;;;;48.38;18.85;;;;;;;;;;5106616;28;20019;-64
2021/07/14 14:00:17;;;;;;;33.05;18.95;;;;;;;;;;5090452;28;20027;-64
2021/07/14 14:02:43;;;;;;;42.00;18.52;;;;;;;;;;5104323;28;20261;-64
2021/07/14 14:05:10;;;;;;;45.83;20.70;;;;;;;;;;5112287;28;20028;-65
2021/07/14 14:07:38;;;;;;;40.38;19.88;;;;;;;;;;5112653;27;20023;-63
2021/07/14 14:10:07;;;;;;;40.47;20.52;;;;;;;;;;5108944;28;20595;-64
2021/07/14 14:12:41;;;;;;;40.03;19.08;;;;;;;;;;5087763;28;20034;-64
2021/07/14 14:15:07;;;;;;;40.72;19.13;;;;;;;;;;5112103;28;20530;-64
2021/07/14 14:17:33;;;;;;;42.63;21.27;;;;;;;;;;5111275;28;20078;-64
2021/07/14 14:19:59;;;;;;;45.58;20.65;;;;;;;;;;5109260;28;20023;-65
2021/07/14 14:22:26;;;;;;;44.90;21.15;;;;;;;;;;5096812;27;20028;-65
2021/07/14 14:24:53;;;;;;;39.55;20.33;;;;;;;;;;5117073;27;20038;-63
2021/07/14 14:27:21;;;;;;;39.20;19.77;;;;;;;;;;5095378;28;20114;-64
2021/07/14 14:29:48;;;;;;;37.78;18.80;;;;;;;;;;5112068;28;20040;-64
2021/07/14 14:32:16;;;;;;;36.45;18.38;;;;;;;;;;5113624;28;20020;-64
2021/07/14 14:34:42;;;;;;;34.17;19.25;;;;;;;;;;5110383;28;20026;-64
2021/07/14 14:37:08;;;;;;;40.60;18.92;;;;;;;;;;5112650;28;20062;-63
2021/07/14 14:39:34;;;;;;;39.72;18.38;;;;;;;;;;5112423;27;20034;-64